createdAt,value
2022-12-03T00:27:20.133Z,83.85
2022-12-03T00:57:20.143Z,84.01
2022-12-03T01:27:20.137Z,83.91
2022-12-03T01:57:20.138Z,83.91
2022-12-03T02:27:20.153Z,83.82
2022-12-03T02:57:20.145Z,83.95
2022-12-03T03:27:20.159Z,84.08
2022-12-03T03:57:20.171Z,84.21
2022-12-03T04:27:20.193Z,84.11
2022-12-03T04:57:20.176Z,84.36
2022-12-03T05:27:23.671Z,84.31
2022-12-03T05:57:20.204Z,84.34
2022-12-03T06:27:20.203Z,84.44
2022-12-03T06:57:20.207Z,84.46
2022-12-03T07:27:20.219Z,84.68
2022-12-03T07:57:20.210Z,84.69
2022-12-03T08:27:20.213Z,84.69
2022-12-03T08:57:20.226Z,84.56
2022-12-03T09:27:20.243Z,84.41
2022-12-03T09:57:20.217Z,84.4
2022-12-03T10:27:20.243Z,84.13
2022-12-03T10:57:20.247Z,83.96
2022-12-03T11:27:20.260Z,83.95
2022-12-03T11:57:20.267Z,83.92
2022-12-03T12:27:20.296Z,83.69
2022-12-03T12:57:20.277Z,83.73
2022-12-03T13:27:20.278Z,83.53
2022-12-03T13:57:20.285Z,83.41
2022-12-03T14:27:20.292Z,83.61
2022-12-03T14:57:20.295Z,83.62
2022-12-03T15:27:20.299Z,83.56
2022-12-03T15:57:20.305Z,83.65
2022-12-03T16:27:25.292Z,83.56
2022-12-03T16:57:20.317Z,83.42
2022-12-03T17:27:20.314Z,83.41
2022-12-03T17:57:20.323Z,83.71
2022-12-03T18:27:20.320Z,83.6
2022-12-03T18:57:20.324Z,83.55
2022-12-03T19:27:20.351Z,83.52
2022-12-03T19:57:23.551Z,83.71
2022-12-03T20:27:23.003Z,83.39
2022-12-03T20:57:20.359Z,83.41
2022-12-03T21:27:22.006Z,83.53
2022-12-03T21:57:20.376Z,83.43
2022-12-03T22:27:20.369Z,83.3
2022-12-03T22:57:20.374Z,83.43
2022-12-03T23:27:20.390Z,83.44
2022-12-03T23:57:20.391Z,83.4
